Time;durP1;ratioP1;P1;durP2;ratioP2;P2;SDS_P1;SDS_P2;PMS_P1;PMS_P2;Temp;Humidity;BMP_temperature;BMP_pressure;BME280_temperature;BME280_humidity;BME280_pressure;Samples;Min_cycle;Max_cycle;Signal;HPM_P1;HPM_P2
2023/04/01 00:00:52;;;;;;;0.90;0.70;;;18.70;46.40;;;;;;5018540;28;20801;-61
2023/04/01 00:03:20;;;;;;;0.80;0.80;;;18.70;46.50;;;;;;5018897;28;20283;-64
2023/04/01 00:05:46;;;;;;;0.80;0.70;;;18.70;46.50;;;;;;5017064;28;20803;-64
2023/04/01 00:08:12;;;;;;;1.67;0.83;;;18.70;46.50;;;;;;5017961;28;20452;-65
2023/04/01 00:10:37;;;;;;;1.07;0.70;;;18.70;46.50;;;;;;5018579;28;20429;-65
2023/04/01 00:13:03;;;;;;;0.70;0.67;;;18.70;46.50;;;;;;5016862;28;20426;-66
2023/04/01 00:15:29;;;;;;;0.80;0.70;;;18.70;46.50;;;;;;5021589;28;20241;-60
2023/04/01 00:17:55;;;;;;;1.00;0.80;;;18.70;46.50;;;;;;5014417;28;20229;-68
2023/04/01 00:20:21;;;;;;;1.10;0.80;;;18.70;46.50;;;;;;5016338;28;20556;-60
2023/04/01 00:22:46;;;;;;;1.00;0.70;;;18.80;46.50;;;;;;5018171;28;20233;-62
2023/04/01 00:25:12;;;;;;;0.80;0.70;;;18.70;46.50;;;;;;5013220;28;20225;-64
2023/04/01 00:27:38;;;;;;;0.97;0.80;;;18.70;46.50;;;;;;5016308;28;20229;-61
2023/04/01 00:30:04;;;;;;;0.80;0.60;;;18.70;46.40;;;;;;5012398;28;20442;-61
2023/04/01 00:32:30;;;;;;;1.00;0.73;;;18.70;46.50;;;;;;5016006;28;20230;-64
2023/04/01 00:34:56;;;;;;;1.00;0.70;;;18.70;46.50;;;;;;5012783;28;20871;-60
2023/04/01 00:37:22;;;;;;;0.83;0.70;;;18.70;46.50;;;;;;5015303;28;20474;-60
2023/04/01 00:39:48;;;;;;;0.90;0.70;;;18.70;46.50;;;;;;5018864;28;20219;-64
2023/04/01 00:42:13;;;;;;;1.20;0.80;;;18.70;46.50;;;;;;5014016;28;21152;-59
2023/04/01 00:44:40;;;;;;;0.90;0.70;;;18.70;46.50;;;;;;5012047;28;20219;-65
2023/04/01 00:47:06;;;;;;;0.93;0.70;;;18.70;46.50;;;;;;5020050;28;20227;-60
2023/04/01 00:49:40;;;;;;;1.93;0.70;;;18.70;46.50;;;;;;5015809;28;20916;-65
2023/04/01 00:52:08;;;;;;;0.70;0.70;;;18.70;46.50;;;;;;5015816;28;20231;-66
2023/04/01 00:54:35;;;;;;;0.80;0.70;;;18.70;46.50;;;;;;5020485;28;20476;-60
2023/04/01 00:57:06;;;;;;;1.03;0.80;;;18.70;46.50;;;;;;5011467;28;20446;-63
2023/04/01 00:59:40;;;;;;;0.80;0.60;;;18.70;46.50;;;;;;5014469;28;21024;-61
2023/04/01 01:02:09;;;;;;;0.73;0.63;;;18.70;46.50;;;;;;5017513;28;20458;-64
2023/04/01 01:04:35;;;;;;;1.10;1.00;;;18.70;46.50;;;;;;5014328;28;20443;-59
2023/04/01 01:07:41;;;;;;;0.80;0.80;;;18.70;46.50;;;;;;5011635;28;20460;-61
2023/04/01 01:10:33;;;;;;;0.93;0.50;;;18.70;46.50;;;;;;5014075;28;20415;-67
2023/04/01 01:13:14;;;;;;;1.00;0.70;;;18.70;46.50;;;;;;5014558;28;20471;-62
2023/04/01 01:15:47;;;;;;;0.70;0.60;;;18.70;46.50;;;;;;5009310;28;20466;-61
2023/04/01 01:18:19;;;;;;;0.83;0.60;;;18.70;46.50;;;;;;5017579;28;21037;-67
2023/04/01 01:21:19;;;;;;;0.83;0.70;;;18.70;46.60;;;;;;5011639;28;20477;-59
2023/04/01 01:24:03;;;;;;;1.67;0.70;;;18.70;46.50;;;;;;5011600;28;22220;-60
2023/04/01 01:26:53;;;;;;;1.10;0.70;;;18.70;46.50;;;;;;5013160;28;20476;-63
2023/04/01 01:30:07;;;;;;;0.80;0.60;;;18.70;46.50;;;;;;5013248;28;20434;-64
2023/04/01 01:33:08;;;;;;;0.77;0.70;;;18.70;46.50;;;;;;4998528;28;20450;-59
2023/04/01 01:35:40;;;;;;;0.67;0.60;;;18.70;46.50;;;;;;4972842;28;20535;-64
2023/04/01 01:38:15;;;;;;;0.70;0.60;;;18.70;46.60;;;;;;5004550;28;20435;-68
2023/04/01 01:40:44;;;;;;;0.70;0.60;;;18.70;46.50;;;;;;5010763;28;20443;-63
2023/04/01 01:43:16;;;;;;;0.90;0.70;;;18.70;46.60;;;;;;5015876;28;20467;-62
2023/04/01 01:45:47;;;;;;;1.10;0.70;;;18.70;46.50;;;;;;5013725;28;20438;-61
2023/04/01 01:48:13;;;;;;;0.70;0.60;;;18.70;46.50;;;;;;5014100;28;20419;-60
2023/04/01 01:50:40;;;;;;;0.80;0.63;;;18.70;46.60;;;;;;5011123;28;20833;-61
2023/04/01 01:53:11;;;;;;;0.70;0.60;;;18.70;46.50;;;;;;5012282;28;20764;-60
2023/04/01 01:55:40;;;;;;;1.10;0.80;;;18.70;46.50;;;;;;5011265;28;20459;-59
2023/04/01 01:58:19;;;;;;;0.60;0.60;;;18.70;46.50;;;;;;5017261;28;20489;-62
2023/04/01 02:00:49;;;;;;;1.17;0.60;;;18.70;46.50;;;;;;5008809;28;20801;-65
2023/04/01 02:03:16;;;;;;;0.87;0.70;;;18.70;46.50;;;;;;5012376;28;20456;-67
2023/04/01 02:05:43;;;;;;;0.70;0.60;;;18.70;46.50;;;;;;5009283;28;20500;-61
2023/04/01 02:08:20;;;;;;;1.33;0.80;;;18.70;46.60;;;;;;5011523;28;20415;-64
2023/04/01 02:11:03;;;;;;;0.73;0.60;;;18.70;46.60;;;;;;5008240;28;20438;-60
2023/04/01 02:13:40;;;;;;;0.70;0.60;;;18.70;46.60;;;;;;5011647;28;21629;-64
2023/04/01 02:16:14;;;;;;;1.03;0.90;;;18.70;46.50;;;;;;5012972;28;20434;-60
2023/04/01 02:18:41;;;;;;;0.77;0.60;;;18.70;46.50;;;;;;5014717;28;20474;-60
2023/04/01 02:21:08;;;;;;;0.70;0.50;;;18.70;46.50;;;;;;5015777;28;20515;-69
2023/04/01 02:23:36;;;;;;;1.00;0.70;;;18.70;46.70;;;;;;5011889;28;20448;-60
2023/04/01 02:26:04;;;;;;;0.80;0.63;;;18.70;46.60;;;;;;5011568;28;20533;-59
2023/04/01 02:28:31;;;;;;;1.43;0.60;;;18.70;46.50;;;;;;5010273;28;20447;-63
2023/04/01 02:31:00;;;;;;;0.90;0.80;;;18.70;46.60;;;;;;5010100;28;20521;-59
2023/04/01 02:33:26;;;;;;;0.70;0.60;;;18.70;46.50;;;;;;5006740;28;20450;-64
2023/04/01 02:35:52;;;;;;;0.80;0.60;;;18.70;46.50;;;;;;5011056;28;20480;-66
2023/04/01 02:38:18;;;;;;;0.63;0.60;;;18.70;46.60;;;;;;5015338;28;20465;-62
2023/04/01 02:40:49;;;;;;;1.20;0.70;;;18.70;46.50;;;;;;5009680;28;20246;-62
2023/04/01 02:43:16;;;;;;;0.70;0.60;;;18.60;46.40;;;;;;5013192;28;20586;-67
2023/04/01 02:45:42;;;;;;;0.77;0.70;;;18.60;46.50;;;;;;5013519;28;20490;-62
2023/04/01 02:48:07;;;;;;;0.60;0.60;;;18.70;46.50;;;;;;5018103;28;20983;-63
2023/04/01 02:50:33;;;;;;;0.73;0.60;;;18.70;46.60;;;;;;5015517;28;20453;-61
2023/04/01 02:52:59;;;;;;;0.73;0.60;;;18.70;46.60;;;;;;5009480;28;20237;-67
2023/04/01 02:55:25;;;;;;;0.70;0.60;;;18.70;46.60;;;;;;5015498;28;20230;-60
2023/04/01 02:57:50;;;;;;;0.80;0.70;;;18.70;46.60;;;;;;5017356;28;20244;-65
2023/04/01 03:00:16;;;;;;;0.63;0.50;;;18.70;46.60;;;;;;5014130;28;20220;-64
2023/04/01 03:02:43;;;;;;;1.37;0.50;;;18.60;46.50;;;;;;5013315;28;20226;-67
2023/04/01 03:05:09;;;;;;;0.80;0.60;;;18.60;46.50;;;;;;5019103;28;20454;-62
2023/04/01 03:07:35;;;;;;;0.60;0.57;;;18.70;46.60;;;;;;5019740;28;20557;-65
2023/04/01 03:10:01;;;;;;;1.73;0.70;;;18.70;46.60;;;;;;5017709;28;20218;-67
2023/04/01 03:12:26;;;;;;;0.80;0.60;;;18.70;46.60;;;;;;5015009;28;20227;-66
2023/04/01 03:14:52;;;;;;;0.70;0.50;;;18.70;46.60;;;;;;5014967;28;20237;-63
2023/04/01 03:17:17;;;;;;;0.63;0.50;;;18.70;46.60;;;;;;5014885;28;20301;-59
2023/04/01 03:19:43;;;;;;;1.47;0.60;;;18.70;46.60;;;;;;5013191;28;20307;-61
2023/04/01 03:22:11;;;;;;;0.70;0.50;;;18.60;46.50;;;;;;5016291;28;20450;-61
2023/04/01 03:24:36;;;;;;;0.57;0.50;;;18.70;46.60;;;;;;5018518;28;20218;-65
2023/04/01 03:27:02;;;;;;;0.80;0.70;;;18.70;46.60;;;;;;5013634;28;20467;-62
2023/04/01 03:29:27;;;;;;;0.83;0.70;;;18.70;46.60;;;;;;5015340;28;20227;-61
2023/04/01 03:31:53;;;;;;;0.60;0.50;;;18.70;46.60;;;;;;5013670;28;20218;-63
2023/04/01 03:34:18;;;;;;;0.60;0.57;;;18.70;46.60;;;;;;5016310;28;20238;-62
2023/04/01 03:36:44;;;;;;;0.60;0.50;;;18.60;46.50;;;;;;5015930;28;20214;-61
2023/04/01 03:39:09;;;;;;;0.60;0.50;;;18.60;46.50;;;;;;5019891;28;21449;-60
2023/04/01 03:41:36;;;;;;;0.70;0.57;;;18.70;46.60;;;;;;5017208;28;20222;-61
2023/04/01 03:44:02;;;;;;;0.90;0.60;;;18.60;46.50;;;;;;5017547;28;20225;-65
2023/04/01 03:46:28;;;;;;;0.67;0.50;;;18.60;46.50;;;;;;5010080;28;20450;-62
2023/04/01 03:48:53;;;;;;;0.73;0.60;;;18.70;46.60;;;;;;5011534;28;20225;-68
2023/04/01 03:51:19;;;;;;;0.70;0.70;;;18.60;46.50;;;;;;5029793;28;20854;-68
2023/04/01 03:53:45;;;;;;;0.60;0.50;;;18.60;46.50;;;;;;5018238;28;20230;-62
2023/04/01 03:56:10;;;;;;;0.80;0.80;;;18.60;46.50;;;;;;5015817;28;20724;-60
2023/04/01 03:58:36;;;;;;;0.70;0.47;;;18.70;46.60;;;;;;5014637;28;20537;-66
2023/04/01 04:01:02;;;;;;;1.87;0.80;;;18.70;46.60;;;;;;5013015;28;20705;-59
2023/04/01 04:03:27;;;;;;;0.90;0.60;;;18.60;46.50;;;;;;5015757;28;20445;-63
2023/04/01 04:05:53;;;;;;;0.80;0.60;;;18.60;46.40;;;;;;5014368;28;20222;-62
2023/04/01 04:08:21;;;;;;;1.43;0.50;;;18.70;46.60;;;;;;5018611;28;20246;-65
2023/04/01 04:10:46;;;;;;;0.70;0.60;;;18.70;46.60;;;;;;5019001;28;20237;-63
2023/04/01 04:13:12;;;;;;;0.90;0.70;;;18.60;46.50;;;;;;5016780;28;20972;-65
2023/04/01 04:15:38;;;;;;;0.80;0.80;;;18.60;46.50;;;;;;5018082;28;20248;-59
2023/04/01 04:18:04;;;;;;;0.60;0.50;;;18.60;46.40;;;;;;5015051;28;20247;-64
2023/04/01 04:20:29;;;;;;;1.40;0.60;;;18.60;46.50;;;;;;5017190;28;20434;-60
2023/04/01 04:22:55;;;;;;;0.60;0.50;;;18.60;46.40;;;;;;5015625;28;20230;-59
2023/04/01 04:25:20;;;;;;;0.60;0.50;;;18.70;46.50;;;;;;5013950;28;20699;-69
2023/04/01 04:27:46;;;;;;;0.60;0.50;;;18.60;46.50;;;;;;5010973;28;20260;-63
2023/04/01 04:30:12;;;;;;;0.60;0.50;;;18.70;46.60;;;;;;5017008;28;20273;-63
2023/04/01 04:32:37;;;;;;;0.60;0.50;;;18.70;46.50;;;;;;5016345;28;20592;-69
2023/04/01 04:35:03;;;;;;;0.60;0.50;;;18.60;46.50;;;;;;5013383;28;20227;-61
2023/04/01 04:37:29;;;;;;;0.70;0.60;;;18.70;46.50;;;;;;5019548;28;20249;-62
2023/04/01 04:39:54;;;;;;;0.60;0.40;;;18.70;46.60;;;;;;5011440;28;20239;-59
2023/04/01 04:42:20;;;;;;;1.00;0.50;;;18.70;46.50;;;;;;5013786;28;20301;-59
2023/04/01 04:44:45;;;;;;;0.60;0.40;;;18.70;46.50;;;;;;5016231;28;20692;-59
2023/04/01 04:47:11;;;;;;;0.60;0.50;;;18.70;46.50;;;;;;5017228;28;20222;-60
2023/04/01 04:49:36;;;;;;;0.70;0.60;;;18.70;46.40;;;;;;5015630;28;20223;-59
2023/04/01 04:52:02;;;;;;;0.70;0.50;;;18.70;46.50;;;;;;5013704;28;20288;-59
2023/04/01 04:54:27;;;;;;;0.70;0.50;;;18.70;46.40;;;;;;5019101;28;20250;-61
2023/04/01 04:56:54;;;;;;;0.60;0.50;;;18.70;46.50;;;;;;5015282;28;20628;-59
2023/04/01 04:59:19;;;;;;;0.80;0.60;;;18.70;46.40;;;;;;5014996;28;20223;-62
2023/04/01 05:01:45;;;;;;;0.70;0.60;;;18.70;46.50;;;;;;5010396;28;21177;-60
2023/04/01 05:04:10;;;;;;;0.60;0.50;;;18.70;46.30;;;;;;5014466;28;20348;-64
2023/04/01 05:06:36;;;;;;;0.60;0.50;;;18.70;46.40;;;;;;5010422;28;20226;-63
2023/04/01 05:09:02;;;;;;;1.00;0.90;;;18.70;46.30;;;;;;5017805;28;20211;-61
2023/04/01 05:11:27;;;;;;;0.70;0.60;;;18.70;46.30;;;;;;5016043;28;20265;-62
2023/04/01 05:13:53;;;;;;;0.70;0.50;;;18.70;46.40;;;;;;5018278;28;20227;-60
2023/04/01 05:16:20;;;;;;;0.60;0.50;;;18.70;46.30;;;;;;5014786;28;20703;-68
2023/04/01 05:18:46;;;;;;;0.60;0.40;;;18.70;46.30;;;;;;5014332;28;20736;-64
2023/04/01 05:21:14;;;;;;;0.77;0.50;;;18.70;46.30;;;;;;5017154;28;20799;-63
2023/04/01 05:23:40;;;;;;;0.97;0.50;;;18.70;46.30;;;;;;5008920;28;20933;-60
2023/04/01 05:26:07;;;;;;;1.17;0.60;;;18.70;46.30;;;;;;5014136;28;20431;-61
2023/04/01 05:28:32;;;;;;;0.60;0.50;;;18.70;46.30;;;;;;5014329;28;20226;-64
2023/04/01 05:31:00;;;;;;;1.53;0.60;;;18.70;46.40;;;;;;5012726;28;20435;-59
2023/04/01 05:33:26;;;;;;;0.77;0.77;;;18.70;46.30;;;;;;5010163;28;20430;-68
2023/04/01 05:35:53;;;;;;;3.40;0.60;;;18.70;46.30;;;;;;5007908;28;20488;-60
2023/04/01 05:38:18;;;;;;;0.60;0.47;;;18.70;46.30;;;;;;5009088;28;20434;-70
2023/04/01 05:40:44;;;;;;;2.20;0.50;;;18.70;46.30;;;;;;5005831;28;20435;-70
2023/04/01 05:43:10;;;;;;;0.80;0.50;;;18.70;46.30;;;;;;5002603;28;20329;-66
2023/04/01 05:45:37;;;;;;;0.70;0.57;;;18.70;46.30;;;;;;4996036;28;20284;-67
2023/04/01 05:48:03;;;;;;;0.87;0.40;;;18.70;46.30;;;;;;5005231;28;20231;-65
2023/04/01 05:50:29;;;;;;;0.60;0.50;;;18.70;46.30;;;;;;5013949;28;20697;-64
2023/04/01 05:52:54;;;;;;;0.60;0.50;;;18.70;46.30;;;;;;5016089;28;20230;-68
2023/04/01 05:55:20;;;;;;;0.60;0.50;;;18.70;46.30;;;;;;5013258;28;20252;-65
2023/04/01 05:57:48;;;;;;;0.73;0.50;;;18.70;46.40;;;;;;5014460;28;20219;-61
2023/04/01 06:00:14;;;;;;;0.67;0.43;;;18.70;46.30;;;;;;5020245;28;20222;-60
2023/04/01 06:02:41;;;;;;;1.43;0.50;;;18.70;46.30;;;;;;5017084;28;20450;-62
2023/04/01 06:05:23;;;;;;;0.60;0.50;;;18.70;46.30;;;;;;5019080;28;20438;-61
2023/04/01 06:08:09;;;;;;;0.60;0.43;;;18.80;46.30;;;;;;5017401;28;20492;-64
2023/04/01 06:11:00;;;;;;;1.23;0.87;;;18.70;47.00;;;;;;5014395;28;20472;-62
2023/04/01 06:14:07;;;;;;;0.60;0.50;;;18.80;46.30;;;;;;5009799;28;20878;-67
2023/04/01 06:17:02;;;;;;;1.33;0.50;;;18.70;46.20;;;;;;5012486;28;20998;-62
2023/04/01 06:19:47;;;;;;;0.60;0.50;;;18.70;46.30;;;;;;5013715;28;20983;-60
2023/04/01 06:22:51;;;;;;;0.80;0.50;;;18.70;46.30;;;;;;5012040;28;20470;-61
2023/04/01 06:25:20;;;;;;;0.50;0.50;;;18.70;46.20;;;;;;5000142;28;20478;-63
2023/04/01 06:28:21;;;;;;;0.80;0.50;;;18.70;46.30;;;;;;5016208;28;20474;-60
2023/04/01 06:31:18;;;;;;;0.70;0.50;;;18.70;46.20;;;;;;5016232;28;20438;-62
2023/04/01 06:34:02;;;;;;;0.53;0.40;;;18.70;46.20;;;;;;5013059;28;20455;-64
2023/04/01 06:37:04;;;;;;;0.80;0.60;;;18.80;46.40;;;;;;5016883;28;20504;-67
2023/04/01 06:39:40;;;;;;;0.70;0.50;;;18.70;46.20;;;;;;5013039;28;20864;-64
2023/04/01 06:42:37;;;;;;;0.90;0.50;;;18.70;46.30;;;;;;5016619;28;20485;-61
2023/04/01 06:45:13;;;;;;;0.73;0.50;;;18.70;46.30;;;;;;5012824;28;20569;-60
2023/04/01 06:48:27;;;;;;;0.60;0.50;;;18.70;46.30;;;;;;5009836;28;20464;-63
2023/04/01 06:51:25;;;;;;;0.90;0.60;;;18.80;46.30;;;;;;4956701;28;20457;-63
2023/04/01 06:54:10;;;;;;;0.60;0.50;;;18.70;46.30;;;;;;5013518;28;20464;-62
2023/04/01 06:56:39;;;;;;;0.60;0.50;;;18.70;46.30;;;;;;5008391;28;21419;-67
2023/04/01 06:59:19;;;;;;;0.60;0.50;;;18.70;46.30;;;;;;5004350;28;20522;-60
2023/04/01 07:01:51;;;;;;;0.70;0.63;;;18.70;46.30;;;;;;5005682;28;20438;-67
2023/04/01 07:04:38;;;;;;;0.60;0.50;;;18.80;46.40;;;;;;5010346;28;20471;-66
2023/04/01 07:07:21;;;;;;;0.70;0.70;;;18.70;46.30;;;;;;5010194;28;20442;-64
2023/04/01 07:09:54;;;;;;;0.70;0.50;;;18.80;46.30;;;;;;5012559;28;20431;-66
2023/04/01 07:12:31;;;;;;;1.00;0.60;;;18.80;46.40;;;;;;5009625;28;21171;-62
2023/04/01 07:15:01;;;;;;;0.97;0.60;;;18.80;46.40;;;;;;5005167;28;21793;-60
2023/04/01 07:17:31;;;;;;;1.20;0.50;;;18.70;47.10;;;;;;5007319;28;20446;-60
2023/04/01 07:20:01;;;;;;;1.37;0.50;;;18.70;46.30;;;;;;5006539;28;20449;-61
2023/04/01 07:22:35;;;;;;;0.60;0.50;;;18.80;46.40;;;;;;5004299;28;20815;-66
2023/04/01 07:25:12;;;;;;;0.60;0.60;;;18.80;46.40;;;;;;5009257;28;20446;-64
2023/04/01 07:27:38;;;;;;;0.70;0.50;;;18.70;46.30;;;;;;5009671;28;21846;-64
2023/04/01 07:30:19;;;;;;;0.80;0.60;;;18.70;46.30;;;;;;5016519;28;20975;-59
2023/04/01 07:32:48;;;;;;;0.70;0.50;;;18.70;46.30;;;;;;5007304;28;20329;-62
2023/04/01 07:35:33;;;;;;;1.00;0.60;;;18.70;46.30;;;;;;5004155;28;20451;-63
2023/04/01 07:38:05;;;;;;;0.80;0.60;;;18.70;46.40;;;;;;5010295;28;20465;-65
2023/04/01 07:40:42;;;;;;;0.87;0.50;;;18.70;46.40;;;;;;5014643;28;20998;-67
2023/04/01 07:43:26;;;;;;;0.77;0.50;;;18.70;46.40;;;;;;5012507;28;21133;-63
2023/04/01 07:46:21;;;;;;;0.70;0.60;;;18.70;46.50;;;;;;5004273;28;20451;-63
2023/04/01 07:49:01;;;;;;;0.80;0.50;;;18.70;46.50;;;;;;5012340;28;20513;-61
2023/04/01 07:51:41;;;;;;;0.60;0.60;;;18.70;46.50;;;;;;5022309;28;20475;-68
2023/04/01 07:54:15;;;;;;;0.83;0.70;;;18.70;46.50;;;;;;5020191;28;20940;-59
2023/04/01 07:56:45;;;;;;;1.00;0.60;;;18.70;46.50;;;;;;5019189;28;20470;-58
2023/04/01 07:59:45;;;;;;;1.10;0.80;;;18.70;46.50;;;;;;5012378;28;20452;-72
2023/04/01 08:02:37;;;;;;;0.70;0.60;;;18.70;46.50;;;;;;5015146;28;20430;-59
2023/04/01 08:05:27;;;;;;;1.13;0.67;;;18.70;46.50;;;;;;5014936;28;21040;-64
2023/04/01 08:07:58;;;;;;;0.60;0.50;;;18.70;46.40;;;;;;5016217;28;20967;-67
2023/04/01 08:10:48;;;;;;;1.27;0.70;;;18.70;46.40;;;;;;5021000;28;20459;-61
2023/04/01 08:13:32;;;;;;;0.90;0.60;;;18.70;46.40;;;;;;5019345;28;20437;-62
2023/04/01 08:16:05;;;;;;;0.70;0.60;;;18.70;46.30;;;;;;5019053;28;20453;-66
2023/04/01 08:18:36;;;;;;;0.60;0.47;;;18.70;46.40;;;;;;5019009;28;20506;-63
2023/04/01 08:21:07;;;;;;;0.60;0.50;;;18.70;46.50;;;;;;5016860;28;20500;-61
2023/04/01 08:23:38;;;;;;;1.00;0.60;;;18.70;46.40;;;;;;5021021;28;20814;-60
2023/04/01 08:26:15;;;;;;;0.70;0.60;;;18.70;46.40;;;;;;5018308;28;20478;-60
2023/04/01 08:28:50;;;;;;;2.57;0.50;;;18.70;46.40;;;;;;5018019;28;20464;-59
2023/04/01 08:31:31;;;;;;;0.87;0.60;;;18.70;46.40;;;;;;5016544;28;20457;-62
2023/04/01 08:33:58;;;;;;;1.30;0.70;;;18.70;46.40;;;;;;5015441;28;20646;-66
2023/04/01 08:36:37;;;;;;;0.80;0.60;;;18.70;46.40;;;;;;5015165;28;20451;-64
2023/04/01 08:39:40;;;;;;;0.80;0.60;;;18.70;46.40;;;;;;5013205;28;20464;-62
2023/04/01 08:42:26;;;;;;;0.70;0.50;;;18.70;46.40;;;;;;5008401;28;20461;-66
2023/04/01 08:45:13;;;;;;;0.90;0.70;;;18.70;46.40;;;;;;5015888;28;20962;-59
2023/04/01 08:48:08;;;;;;;0.73;0.67;;;18.70;46.40;;;;;;5011754;28;20446;-60
2023/04/01 08:50:49;;;;;;;1.03;0.60;;;18.70;46.30;;;;;;5019667;28;20482;-63
2023/04/01 08:53:51;;;;;;;0.70;0.70;;;18.80;46.20;;;;;;5017339;28;20445;-60
2023/04/01 08:56:33;;;;;;;6.90;1.00;;;18.80;46.10;;;;;;5012555;28;20469;-68
2023/04/01 08:59:17;;;;;;;4.77;0.80;;;18.80;46.00;;;;;;5014861;28;20915;-62
2023/04/01 09:02:25;;;;;;;2.40;0.70;;;18.80;46.00;;;;;;5017111;28;20461;-62
2023/04/01 09:05:11;;;;;;;2.67;0.80;;;18.80;46.00;;;;;;4972324;28;20578;-60
2023/04/01 09:07:39;;;;;;;3.20;0.83;;;18.80;46.10;;;;;;5007008;28;20430;-63
2023/04/01 09:10:04;;;;;;;6.97;1.00;;;18.80;46.10;;;;;;5013256;28;20924;-63
2023/04/01 09:12:54;;;;;;;2.87;0.90;;;18.80;46.10;;;;;;5009869;28;20579;-69
2023/04/01 09:15:35;;;;;;;5.63;1.90;;;18.80;46.10;;;;;;5011798;28;20262;-62
2023/04/01 09:18:15;;;;;;;113.07;13.80;;;18.80;46.20;;;;;;5013584;28;20449;-70
2023/04/01 09:21:03;;;;;;;65.43;7.53;;;18.80;46.20;;;;;;5014026;28;20505;-64
2023/04/01 09:23:59;;;;;;;23.93;4.17;;;18.80;46.20;;;;;;5011785;28;20447;-61
2023/04/01 09:26:39;;;;;;;13.77;2.77;;;18.90;46.10;;;;;;5016915;28;21011;-61
2023/04/01 09:29:14;;;;;;;32.43;3.40;;;18.90;45.80;;;;;;5021790;28;20953;-61
2023/04/01 09:32:00;;;;;;;12.30;2.50;;;18.90;45.90;;;;;;5012944;28;20541;-64
2023/04/01 09:34:38;;;;;;;22.10;3.50;;;18.90;45.90;;;;;;5012564;28;20941;-62
2023/04/01 09:37:26;;;;;;;12.40;2.83;;;19.00;46.60;;;;;;5017666;28;20482;-63
2023/04/01 09:40:11;;;;;;;4.03;1.90;;;19.00;46.10;;;;;;5010439;28;20468;-67
2023/04/01 09:42:45;;;;;;;9.00;1.93;;;19.00;46.30;;;;;;5014295;28;20951;-59
2023/04/01 09:45:32;;;;;;;8.80;1.90;;;19.00;46.30;;;;;;5007919;28;20459;-61
2023/04/01 09:48:15;;;;;;;7.07;1.70;;;19.10;46.50;;;;;;5013060;28;20461;-60
2023/04/01 09:51:10;;;;;;;8.50;1.93;;;19.10;46.60;;;;;;5017623;28;21039;-62
2023/04/01 09:53:53;;;;;;;2.67;1.43;;;19.10;46.70;;;;;;5014984;28;20862;-61
2023/04/01 09:56:48;;;;;;;7.03;1.40;;;19.10;46.80;;;;;;5015107;28;20477;-63
2023/04/01 09:59:59;;;;;;;2.70;1.30;;;19.10;46.90;;;;;;5009909;28;20449;-64
2023/04/01 10:02:46;;;;;;;2.30;1.30;;;19.10;46.90;;;;;;5003167;28;20492;-64
2023/04/01 10:05:58;;;;;;;2.47;1.10;;;19.10;47.00;;;;;;5011761;28;20946;-67
2023/04/01 10:09:02;;;;;;;5.00;1.20;;;19.10;47.10;;;;;;5004169;28;20437;-64
2023/04/01 10:11:42;;;;;;;2.83;1.20;;;19.10;47.20;;;;;;5003524;28;23619;-61
2023/04/01 10:14:17;;;;;;;3.30;1.40;;;19.10;47.20;;;;;;5011960;28;20434;-63
2023/04/01 10:17:24;;;;;;;4.10;1.40;;;19.10;47.20;;;;;;5011980;28;21942;-60
2023/04/01 10:19:59;;;;;;;6.80;1.40;;;19.10;47.20;;;;;;5016176;28;20455;-63
2023/04/01 10:22:50;;;;;;;1.70;1.17;;;19.10;47.30;;;;;;5015099;28;20438;-60
2023/04/01 10:25:27;;;;;;;1.30;1.20;;;19.10;47.30;;;;;;5016703;28;20521;-64
2023/04/01 10:28:21;;;;;;;2.03;1.60;;;19.10;47.30;;;;;;5016477;28;20456;-63
2023/04/01 10:31:08;;;;;;;3.40;2.07;;;19.10;47.20;;;;;;5014822;28;20422;-61
2023/04/01 10:34:00;;;;;;;1.63;1.53;;;19.10;47.30;;;;;;5010479;28;20491;-61
2023/04/01 10:36:31;;;;;;;11.33;2.97;;;19.10;47.30;;;;;;5017081;28;20454;-61
2023/04/01 10:39:32;;;;;;;1.50;1.40;;;19.10;47.30;;;;;;5013461;28;20472;-60
2023/04/01 10:42:18;;;;;;;1.40;1.30;;;19.10;47.30;;;;;;5011346;28;20430;-60
2023/04/01 10:45:27;;;;;;;5.17;1.20;;;19.10;47.30;;;;;;5008266;28;20875;-60
2023/04/01 10:48:23;;;;;;;1.77;1.30;;;19.10;47.30;;;;;;5011472;28;20465;-66
2023/04/01 10:51:01;;;;;;;2.03;1.23;;;19.00;47.30;;;;;;5014855;28;20463;-67
2023/04/01 10:53:36;;;;;;;2.90;1.37;;;19.00;47.20;;;;;;5011053;28;20442;-67
2023/04/01 10:56:23;;;;;;;2.87;1.27;;;19.10;47.30;;;;;;5011793;28;20443;-61
2023/04/01 10:59:13;;;;;;;2.30;1.00;;;19.10;47.20;;;;;;5012770;28;20440;-61
2023/04/01 11:01:58;;;;;;;3.83;1.67;;;19.10;47.00;;;;;;5011680;28;20438;-61
2023/04/01 11:05:00;;;;;;;13.90;1.90;;;19.10;46.70;;;;;;5011920;28;20465;-61
2023/04/01 11:07:59;;;;;;;4.87;2.57;;;19.10;46.40;;;;;;5012911;28;21331;-60
2023/04/01 11:10:50;;;;;;;5.83;3.60;;;19.10;46.30;;;;;;5015356;28;20503;-60
2023/04/01 11:13:46;;;;;;;5.73;3.30;;;19.10;46.10;;;;;;5010514;28;20469;-59
2023/04/01 11:16:42;;;;;;;2.33;2.23;;;19.10;46.00;;;;;;5016391;28;20468;-65
2023/04/01 11:19:14;;;;;;;10.10;3.67;;;19.20;45.70;;;;;;5015190;28;20431;-62
2023/04/01 11:22:10;;;;;;;25.43;4.33;;;19.20;45.60;;;;;;5011368;28;20575;-60
2023/04/01 11:24:59;;;;;;;34.57;8.13;;;19.20;45.60;;;;;;5017225;28;20476;-61
2023/04/01 11:27:47;;;;;;;34.73;8.33;;;19.20;45.60;;;;;;5018758;28;20438;-62
2023/04/01 11:30:25;;;;;;;47.07;11.23;;;19.20;45.50;;;;;;5017031;28;21080;-61
2023/04/01 11:33:00;;;;;;;53.33;12.20;;;19.30;45.60;;;;;;5018459;28;20441;-61
2023/04/01 11:35:38;;;;;;;45.53;11.57;;;19.30;45.70;;;;;;5016677;28;20504;-61
2023/04/01 11:38:47;;;;;;;80.30;16.50;;;19.40;45.70;;;;;;5016171;28;20974;-65
2023/04/01 11:41:26;;;;;;;41.37;12.10;;;19.40;45.60;;;;;;5018723;28;21101;-60
2023/04/01 11:44:26;;;;;;;58.10;13.47;;;19.40;45.60;;;;;;5015307;28;20658;-61
2023/04/01 11:47:19;;;;;;;75.87;17.57;;;19.40;45.50;;;;;;5015734;28;20936;-66
2023/04/01 11:49:58;;;;;;;45.70;13.27;;;19.50;45.50;;;;;;5015435;28;20446;-60
2023/04/01 11:52:26;;;;;;;57.53;12.73;;;19.50;45.50;;;;;;5015515;28;20866;-61
2023/04/01 11:55:19;;;;;;;68.73;15.47;;;19.50;45.40;;;;;;5007502;28;21196;-66
2023/04/01 11:58:12;;;;;;;81.63;21.03;;;19.50;45.20;;;;;;5011264;28;20431;-60
2023/04/01 12:00:57;;;;;;;75.13;17.40;;;19.50;45.50;;;;;;5015211;28;20435;-61
2023/04/01 12:03:50;;;;;;;60.47;16.23;;;19.50;45.80;;;;;;5015550;28;20482;-62
2023/04/01 12:06:52;;;;;;;36.20;12.10;;;19.50;45.90;;;;;;5017975;28;20439;-60
2023/04/01 12:09:20;;;;;;;26.93;9.53;;;19.50;46.10;;;;;;5016651;28;21013;-63
2023/04/01 12:11:58;;;;;;;26.63;8.23;;;19.50;46.30;;;;;;5011140;28;20458;-66
2023/04/01 12:14:37;;;;;;;16.73;7.30;;;19.50;46.30;;;;;;5009290;28;20442;-63
2023/04/01 12:17:27;;;;;;;17.23;6.00;;;19.50;47.20;;;;;;5016434;28;20472;-63
2023/04/01 12:20:36;;;;;;;13.63;5.50;;;19.50;46.60;;;;;;5017322;28;21197;-61
2023/04/01 12:26:44;;;;;;;6.60;3.60;;;19.50;46.70;;;;;;5017804;28;20949;-62
2023/04/01 12:29:21;;;;;;;6.43;3.00;;;19.50;46.80;;;;;;5013641;28;21184;-60
2023/04/01 12:32:02;;;;;;;6.27;3.40;;;19.40;46.80;;;;;;5009418;28;20460;-60
2023/04/01 12:35:02;;;;;;;4.17;2.90;;;19.40;46.90;;;;;;5013386;28;21351;-60
2023/04/01 12:37:41;;;;;;;2.87;2.60;;;19.40;46.80;;;;;;5002746;28;20477;-63
2023/04/01 12:40:26;;;;;;;3.10;2.37;;;19.40;46.90;;;;;;5013313;28;20464;-62
2023/04/01 12:43:09;;;;;;;2.20;2.00;;;19.40;47.00;;;;;;5003579;28;20407;-59
2023/04/01 12:45:55;;;;;;;3.73;2.70;;;19.40;47.00;;;;;;5019202;28;20468;-62
2023/04/01 12:48:34;;;;;;;3.10;2.80;;;19.40;46.80;;;;;;5008881;28;20456;-61
2023/04/01 12:51:27;;;;;;;2.63;2.43;;;19.40;46.80;;;;;;5007434;28;20492;-66
2023/04/01 12:54:05;;;;;;;2.30;2.07;;;19.40;46.80;;;;;;5017167;28;20452;-65
2023/04/01 12:56:33;;;;;;;3.63;2.23;;;19.40;46.80;;;;;;5008547;28;20496;-64
2023/04/01 12:59:10;;;;;;;3.60;2.20;;;19.40;46.70;;;;;;5010362;28;20471;-60
2023/04/01 13:02:13;;;;;;;2.63;2.00;;;19.40;46.70;;;;;;5011374;28;20452;-60
2023/04/01 13:04:55;;;;;;;2.37;2.17;;;19.30;46.70;;;;;;5014590;28;20910;-62
2023/04/01 13:07:53;;;;;;;3.27;2.37;;;19.30;46.80;;;;;;5009463;28;20434;-63
2023/04/01 13:10:40;;;;;;;4.93;2.40;;;19.30;46.80;;;;;;5012547;28;20471;-66
2023/04/01 13:13:24;;;;;;;2.53;2.13;;;19.30;46.90;;;;;;5013157;28;21281;-60
2023/04/01 13:16:01;;;;;;;3.83;2.30;;;19.30;46.90;;;;;;5012633;28;20775;-61
2023/04/01 13:18:42;;;;;;;3.90;2.20;;;19.30;47.70;;;;;;5011731;28;20482;-60
2023/04/01 13:21:34;;;;;;;2.07;1.80;;;19.30;47.00;;;;;;5012483;28;20799;-62
2023/04/01 13:24:13;;;;;;;3.03;1.87;;;19.20;46.80;;;;;;5010897;28;20447;-60
2023/04/01 13:27:01;;;;;;;3.43;2.07;;;19.30;47.00;;;;;;5022199;28;20862;-61
2023/04/01 13:29:44;;;;;;;3.80;2.30;;;19.30;46.90;;;;;;5010795;28;20454;-59
2023/04/01 13:32:12;;;;;;;2.50;2.10;;;19.20;46.90;;;;;;5007461;28;21782;-65
2023/04/01 13:35:03;;;;;;;2.70;1.97;;;19.20;46.90;;;;;;5014046;28;20481;-63
2023/04/01 13:37:57;;;;;;;6.73;2.37;;;19.30;47.00;;;;;;5012039;28;20458;-62
2023/04/01 13:40:51;;;;;;;6.23;2.00;;;19.20;46.90;;;;;;4980556;28;20855;-62